Time;durP1;ratioP1;P1;durP2;ratioP2;P2;SDS_P1;SDS_P2;PMS_P1;PMS_P2;Temp;Humidity;BMP_temperature;BMP_pressure;BME280_temperature;BME280_humidity;BME280_pressure;Samples;Min_cycle;Max_cycle;Signal;HPM_P1;HPM_P2
2021/04/03 00:02:27;;;;;;;18.05;5.10;;;;;;;9.86;53.83;102546.13;4931990;28;113669;-73
2021/04/03 00:04:54;;;;;;;18.15;5.00;;;;;;;9.86;54.13;102551.41;4915635;28;114336;-72
2021/04/03 00:07:20;;;;;;;21.23;5.47;;;;;;;9.85;54.25;102557.63;4914374;28;124609;-71
2021/04/03 00:09:47;;;;;;;20.83;5.35;;;;;;;9.85;54.02;102557.63;4931983;28;123732;-73
2021/04/03 00:12:13;;;;;;;20.95;4.88;;;;;;;9.82;53.76;102555.00;4932662;28;114388;-71
2021/04/03 00:14:40;;;;;;;13.48;3.53;;;;;;;9.79;53.40;102555.03;4918101;28;112710;-73
2021/04/03 00:17:07;;;;;;;16.30;3.85;;;;;;;9.76;53.31;102555.09;4938422;28;124538;-73
2021/04/03 00:19:33;;;;;;;17.65;3.70;;;;;;;9.74;52.79;102567.47;4931095;28;123792;-73
2021/04/03 00:22:00;;;;;;;17.55;3.33;;;;;;;9.71;52.88;102567.50;4914397;28;114042;-73
2021/04/03 00:24:26;;;;;;;20.67;3.13;;;;;;;9.71;52.26;102564.88;4933347;28;114100;-73
2021/04/03 00:26:53;;;;;;;14.05;2.67;;;;;;;9.69;52.54;102564.00;4936325;28;124288;-72
2021/04/03 00:29:19;;;;;;;15.15;3.10;;;;;;;9.68;52.18;102559.59;4940218;28;124932;-73
2021/04/03 00:31:46;;;;;;;13.18;2.70;;;;;;;9.67;51.81;102560.53;4935001;28;114647;-73
2021/04/03 00:34:13;;;;;;;18.48;3.28;;;;;;;9.67;52.05;102549.94;4925486;28;113258;-72
2021/04/03 00:36:39;;;;;;;15.68;3.13;;;;;;;9.66;51.83;102549.06;4932276;28;124461;-73
2021/04/03 00:39:06;;;;;;;14.10;3.15;;;;;;;9.67;51.96;102555.22;4926636;28;123380;-73
2021/04/03 00:41:33;;;;;;;16.58;3.03;;;;;;;9.67;51.84;102552.56;4945283;28;115250;-73
2021/04/03 00:43:59;;;;;;;12.40;3.13;;;;;;;9.68;51.92;102551.66;4915141;28;112972;-72
2021/04/03 00:46:26;;;;;;;19.75;3.50;;;;;;;9.68;51.22;102552.56;4914206;28;124092;-73
2021/04/03 00:48:52;;;;;;;15.10;3.00;;;;;;;9.68;51.36;102546.38;4931619;28;124268;-73
2021/04/03 00:51:19;;;;;;;19.60;3.30;;;;;;;9.68;51.30;102552.56;4914780;28;113786;-73
2021/04/03 00:53:46;;;;;;;19.33;3.35;;;;;;;9.67;51.33;102550.81;4888908;28;113684;-72
2021/04/03 00:56:13;;;;;;;13.45;2.72;;;;;;;9.66;51.30;102549.06;4913346;28;123247;-73
2021/04/03 00:58:40;;;;;;;13.88;3.05;;;;;;;9.65;51.55;102541.16;4930630;28;123862;-72
2021/04/03 01:01:12;;;;;;;14.75;3.03;;;;;;;9.63;51.64;102549.09;4899080;28;113534;-73
2021/04/03 01:03:42;;;;;;;15.68;3.15;;;;;;;9.63;51.54;102553.53;4898964;28;113687;-71
2021/04/03 01:06:09;;;;;;;12.50;2.90;;;;;;;9.64;51.44;102555.25;4898965;28;123439;-71
2021/04/03 01:08:36;;;;;;;16.38;3.35;;;;;;;9.64;51.25;102563.19;4928289;28;122706;-73
2021/04/03 01:11:03;;;;;;;18.75;3.63;;;;;;;9.65;51.25;102549.94;4916679;28;113210;-73
2021/04/03 01:13:51;;;;;;;22.17;3.40;;;;;;;9.65;51.08;102546.44;4931407;28;114733;-73
2021/04/03 01:16:40;;;;;;;19.42;3.13;;;;;;;9.64;51.17;102540.25;4925515;28;124183;-73
2021/04/03 01:19:50;;;;;;;16.42;3.30;;;;;;;9.64;51.14;102534.09;4936089;28;124794;-73
2021/04/03 01:22:28;;;;;;;15.73;3.25;;;;;;;9.64;50.98;102539.38;4931819;28;114814;-73
2021/04/03 01:25:21;;;;;;;15.27;3.40;;;;;;;9.61;51.54;102528.88;4918704;28;113729;-73
2021/04/03 01:28:27;;;;;;;15.60;3.33;;;;;;;9.57;51.57;102532.41;4906039;28;124408;-73
2021/04/03 01:30:57;;;;;;;17.48;3.30;;;;;;;9.55;51.21;102535.97;4913545;28;123215;-73
2021/04/03 01:33:27;;;;;;;20.23;3.35;;;;;;;9.54;51.56;102536.00;4913797;28;114682;-72
2021/04/03 01:36:10;;;;;;;13.88;3.38;;;;;;;9.53;51.52;102535.13;4915758;28;114643;-73
2021/04/03 01:38:53;;;;;;;15.13;2.78;;;;;;;9.53;51.73;102540.41;4929590;28;123273;-73
2021/04/03 01:41:25;;;;;;;15.50;3.17;;;;;;;9.53;51.73;102532.47;4910734;28;123245;-73
2021/04/03 01:43:55;;;;;;;20.13;3.15;;;;;;;9.54;51.76;102539.50;4941666;28;114704;-73
2021/04/03 01:46:38;;;;;;;13.95;3.10;;;;;;;9.54;51.46;102534.22;4941366;28;114287;-72
2021/04/03 01:49:10;;;;;;;14.68;3.00;;;;;;;9.53;51.21;102532.47;4914686;28;124788;-73
2021/04/03 01:51:47;;;;;;;18.77;3.33;;;;;;;9.52;51.41;102533.38;4914143;28;123227;-73
2021/04/03 01:54:17;;;;;;;17.17;3.50;;;;;;;9.52;51.41;102536.00;4930884;28;114698;-72
2021/04/03 01:56:49;;;;;;;17.42;3.28;;;;;;;9.51;51.17;102534.28;4929825;28;114159;-71
2021/04/03 01:59:21;;;;;;;16.40;3.20;;;;;;;9.50;51.33;102548.38;4911932;28;123344;-72
2021/04/03 02:01:55;;;;;;;12.70;3.35;;;;;;;9.49;51.28;102545.75;4930265;28;123459;-73
2021/04/03 02:04:23;;;;;;;12.13;3.10;;;;;;;9.49;51.43;102528.13;4913135;28;113433;-72
2021/04/03 02:06:52;;;;;;;24.58;3.47;;;;;;;9.50;51.61;102537.81;4912203;28;113990;-72
2021/04/03 02:09:32;;;;;;;18.08;3.05;;;;;;;9.49;51.28;102536.06;4922970;28;123922;-72
2021/04/03 02:12:17;;;;;;;;;;;;;;;9.48;51.39;102534.31;4905775;28;123413;-72
2021/04/03 02:14:57;;;;;;;14.32;3.28;;;;;;;9.48;51.41;102544.88;4912808;28;114167;-71
2021/04/03 02:17:28;;;;;;;23.95;3.20;;;;;;;9.47;51.37;102537.84;4890954;28;113208;-72
2021/04/03 02:19:55;;;;;;;22.05;3.38;;;;;;;9.48;51.29;102550.19;4911584;28;124493;-72
2021/04/03 02:22:23;;;;;;;13.93;3.35;;;;;;;9.49;51.28;102557.22;4912632;28;123488;-73
2021/04/03 02:25:17;;;;;;;17.58;3.47;;;;;;;9.47;51.33;102553.69;4912230;28;114604;-72
2021/04/03 02:27:45;;;;;;;18.33;3.45;;;;;;;9.48;51.67;102550.19;4929050;28;115062;-72
2021/04/03 02:30:19;;;;;;;16.10;3.30;;;;;;;9.48;51.35;102550.19;4898483;28;124105;-72
2021/04/03 02:32:54;;;;;;;12.98;2.67;;;;;;;9.51;51.49;102550.16;4929100;28;124438;-73
2021/04/03 02:35:25;;;;;;;15.98;2.95;;;;;;;9.52;51.43;102551.00;4905413;28;114234;-72
2021/04/03 02:37:57;;;;;;;20.40;3.25;;;;;;;9.51;51.40;102544.84;4913156;28;114262;-73
2021/04/03 02:40:29;;;;;;;14.63;3.30;;;;;;;9.53;51.47;102543.06;4912081;28;124425;-71
2021/04/03 02:43:24;;;;;;;19.77;3.22;;;;;;;9.53;51.55;102548.34;4898575;28;123489;-73
2021/04/03 02:46:19;;;;;;;17.17;3.20;;;;;;;9.54;51.55;102534.22;4930936;28;113845;-73
2021/04/03 02:48:49;;;;;;;18.45;3.55;;;;;;;9.55;51.64;102546.56;4905393;28;114024;-72
2021/04/03 02:51:27;;;;;;;15.38;3.53;;;;;;;9.57;51.80;102548.28;4917095;28;123723;-73
2021/04/03 02:53:55;;;;;;;19.80;3.20;;;;;;;9.59;51.54;102546.50;4936478;28;124179;-73
2021/04/03 02:56:25;;;;;;;18.17;3.50;;;;;;;9.60;51.51;102542.97;4914854;28;114857;-73
2021/04/03 02:58:55;;;;;;;14.50;3.17;;;;;;;9.62;51.38;102546.47;4915941;28;114884;-73
2021/04/03 03:01:23;;;;;;;16.40;3.13;;;;;;;9.62;51.00;102541.19;4933452;28;123630;-72
2021/04/03 03:04:00;;;;;;;14.90;2.95;;;;;;;9.61;51.20;102544.75;4917159;28;123307;-73
2021/04/03 03:06:31;;;;;;;17.45;3.47;;;;;;;9.60;51.02;102537.69;4895553;28;115001;-73
2021/04/03 03:09:01;;;;;;;16.15;3.05;;;;;;;9.59;51.31;102536.81;4914321;28;113658;-73
2021/04/03 03:11:28;;;;;;;20.58;3.40;;;;;;;9.58;51.33;102544.75;4931456;28;124259;-73
2021/04/03 03:14:00;;;;;;;15.90;3.17;;;;;;;9.57;51.13;102535.06;4931622;28;124080;-72
2021/04/03 03:16:28;;;;;;;22.95;3.20;;;;;;;9.55;51.13;102530.69;4904737;28;114475;-71
2021/04/03 03:18:57;;;;;;;21.25;3.65;;;;;;;9.55;51.00;102524.53;4915004;28;114167;-72
2021/04/03 03:21:27;;;;;;;17.50;3.33;;;;;;;9.55;50.94;102535.97;4915568;28;124528;-72
2021/04/03 03:23:55;;;;;;;16.38;3.03;;;;;;;9.56;51.13;102531.56;4918848;28;123130;-72
2021/04/03 03:26:23;;;;;;;17.10;3.15;;;;;;;9.55;51.32;102535.97;4921418;28;113815;-72
2021/04/03 03:28:55;;;;;;;14.80;3.15;;;;;;;9.55;51.13;102530.69;4914824;28;114689;-72
2021/04/03 03:31:23;;;;;;;19.10;3.00;;;;;;;9.56;51.31;102531.56;4905465;23;123537;-74
2021/04/03 03:33:53;;;;;;;16.10;3.38;;;;;;;9.54;51.02;102523.63;4877494;28;123489;-74
2021/04/03 03:36:20;;;;;;;15.10;2.85;;;;;;;9.55;50.99;102514.81;4878562;28;114030;-74
2021/04/03 03:38:51;;;;;;;19.52;3.40;;;;;;;9.54;50.90;102518.34;4878569;28;113660;-73
2021/04/03 03:41:22;;;;;;;18.85;2.95;;;;;;;9.54;50.65;102517.47;4877429;28;124400;-74
2021/04/03 03:43:50;;;;;;;19.65;3.42;;;;;;;9.52;51.02;102520.13;4877852;28;123082;-74
2021/04/03 03:46:17;;;;;;;15.45;3.00;;;;;;;9.53;50.80;102537.78;4895052;28;113992;-73
2021/04/03 03:48:46;;;;;;;15.98;3.33;;;;;;;9.55;50.92;102530.69;4877826;28;113282;-73
2021/04/03 03:51:12;;;;;;;18.73;2.97;;;;;;;9.55;50.83;102541.28;4895154;28;123586;-74
2021/04/03 03:53:52;;;;;;;18.65;3.17;;;;;;;9.58;51.20;102534.19;4876978;28;123263;-73
2021/04/03 03:56:19;;;;;;;17.70;2.97;;;;;;;9.57;51.10;102537.72;4878133;28;113623;-74
2021/04/03 03:58:46;;;;;;;17.05;3.28;;;;;;;9.58;51.06;102550.06;4878319;28;114693;-74
2021/04/03 04:01:13;;;;;;;15.65;2.78;;;;;;;9.57;51.12;102548.28;4864462;28;124273;-74
2021/04/03 04:03:41;;;;;;;18.10;3.40;;;;;;;9.55;50.92;102549.22;4894474;28;124173;-74
2021/04/03 04:06:14;;;;;;;13.93;2.75;;;;;;;9.53;51.39;102558.94;4878419;28;114374;-74
2021/04/03 04:08:45;;;;;;;19.88;3.22;;;;;;;9.52;51.16;102543.94;4893373;28;115027;-74
2021/04/03 04:11:16;;;;;;;13.70;3.05;;;;;;;9.51;51.29;102552.78;4876426;28;124270;-73
2021/04/03 04:13:45;;;;;;;18.65;3.67;;;;;;;9.50;51.34;102548.38;4877351;28;122556;-74
2021/04/03 04:16:16;;;;;;;22.40;3.30;;;;;;;9.46;51.43;102557.25;4876952;28;113799;-74
2021/04/03 04:18:44;;;;;;;23.52;3.50;;;;;;;9.45;51.45;102555.50;4877938;28;113872;-75
2021/04/03 04:21:17;;;;;;;18.48;3.42;;;;;;;9.43;51.18;102552.00;4894363;28;124669;-75
2021/04/03 04:23:45;;;;;;;17.42;3.55;;;;;;;9.42;51.18;102560.84;4895401;28;124600;-75
2021/04/03 04:26:12;;;;;;;17.75;3.30;;;;;;;9.42;51.37;102565.22;4877968;28;113980;-75
2021/04/03 04:28:42;;;;;;;17.10;3.05;;;;;;;9.41;51.24;102567.00;4872776;28;114355;-75
2021/04/03 04:31:12;;;;;;;22.00;3.67;;;;;;;9.40;51.39;102570.56;4868610;28;123321;-75
2021/04/03 04:33:49;;;;;;;15.30;2.95;;;;;;;9.39;51.63;102566.16;4877633;28;123011;-75
2021/04/03 04:36:18;;;;;;;18.02;3.40;;;;;;;9.38;51.34;102577.66;4876493;28;113843;-75
2021/04/03 04:38:47;;;;;;;20.38;3.60;;;;;;;9.37;51.75;102573.25;4893237;28;113596;-75
2021/04/03 04:41:14;;;;;;;20.17;3.72;;;;;;;9.37;51.41;102575.88;4894552;28;124316;-75
2021/04/03 04:43:42;;;;;;;17.77;3.33;;;;;;;9.38;51.51;102584.69;4877196;28;124191;-75
2021/04/03 04:46:09;;;;;;;20.10;3.05;;;;;;;9.38;51.42;102584.69;4877013;28;114637;-75
2021/04/03 04:48:47;;;;;;;20.42;3.50;;;;;;;9.38;51.42;102585.56;4877379;28;114179;-75
2021/04/03 04:51:21;;;;;;;20.67;3.20;;;;;;;9.37;51.14;102586.47;4876611;28;123520;-75
2021/04/03 04:53:50;;;;;;;24.13;3.83;;;;;;;9.35;51.09;102586.47;4892592;28;124219;-75
2021/04/03 04:56:22;;;;;;;27.20;4.18;;;;;;;9.34;51.15;102589.13;4873756;28;114888;-75
2021/04/03 04:58:49;;;;;;;22.83;3.90;;;;;;;9.35;50.92;102588.25;4874777;28;115127;-75
2021/04/03 05:01:19;;;;;;;18.70;3.67;;;;;;;9.32;51.33;102586.53;4872637;28;123002;-75
2021/04/03 05:03:48;;;;;;;19.27;4.10;;;;;;;9.32;50.74;102596.19;4891426;28;124181;-75
2021/04/03 05:06:14;;;;;;;18.73;3.35;;;;;;;9.31;51.17;102605.03;4890473;28;114604;-75
2021/04/03 05:08:41;;;;;;;25.27;4.22;;;;;;;9.29;50.74;102606.84;4888516;28;114966;-75
2021/04/03 05:11:07;;;;;;;17.38;3.50;;;;;;;9.23;50.74;102606.88;4875092;28;122065;-75
2021/04/03 05:13:35;;;;;;;25.85;3.95;;;;;;;9.20;51.04;102606.94;4896703;28;123694;-77
2021/04/03 05:16:02;;;;;;;25.88;3.50;;;;;;;9.16;51.05;102614.88;4872627;28;113945;-76
2021/04/03 05:18:29;;;;;;;22.60;3.72;;;;;;;9.13;50.81;102617.56;4894780;28;113675;-75
2021/04/03 05:20:55;;;;;;;28.83;3.95;;;;;;;9.09;50.79;102615.84;4857241;28;124449;-75
2021/04/03 05:23:22;;;;;;;22.75;3.67;;;;;;;9.05;50.90;102613.25;4894436;28;124011;-75
2021/04/03 05:25:49;;;;;;;20.83;3.67;;;;;;;9.01;50.93;102611.53;4893637;28;113797;-75
2021/04/03 05:28:15;;;;;;;24.27;3.65;;;;;;;8.96;51.09;102608.91;4894323;28;113831;-75
2021/04/03 05:30:42;;;;;;;20.25;3.75;;;;;;;8.93;51.53;102614.25;4893647;28;124046;-75
2021/04/03 05:33:10;;;;;;;17.60;3.85;;;;;;;8.92;51.54;102623.06;4877541;28;124732;-75
2021/04/03 05:35:37;;;;;;;23.80;3.85;;;;;;;8.91;51.59;102631.88;4876254;28;114496;-75
2021/04/03 05:38:04;;;;;;;22.35;4.55;;;;;;;8.90;51.83;102631.00;4877195;28;113318;-75
2021/04/03 05:40:31;;;;;;;22.58;3.85;;;;;;;8.90;51.86;102635.41;4861444;28;122927;-75
2021/04/03 05:43:03;;;;;;;25.60;4.32;;;;;;;8.91;52.38;102639.78;4884841;28;122928;-75
2021/04/03 05:45:36;;;;;;;22.30;3.60;;;;;;;8.89;52.04;102634.53;4890619;28;114063;-75
2021/04/03 05:48:04;;;;;;;24.35;4.60;;;;;;;8.92;52.30;102644.19;4906887;28;114416;-75
2021/04/03 05:50:32;;;;;;;25.85;4.50;;;;;;;8.94;52.27;102653.00;4879512;28;123989;-75
2021/04/03 05:52:59;;;;;;;24.50;4.53;;;;;;;8.96;52.32;102652.06;4877565;28;123320;-75
2021/04/03 05:55:26;;;;;;;31.73;4.30;;;;;;;8.98;52.67;102654.72;4880023;28;114886;-75
2021/04/03 05:57:52;;;;;;;26.17;4.75;;;;;;;9.00;52.75;102658.22;4883264;28;113931;-75
2021/04/03 06:00:20;;;;;;;27.50;4.57;;;;;;;9.02;52.60;102661.72;4861899;28;123487;-75
2021/04/03 06:02:47;;;;;;;29.45;4.72;;;;;;;9.05;52.78;102672.25;4893451;28;123987;-74
2021/04/03 06:05:14;;;;;;;23.35;4.63;;;;;;;9.08;52.81;102672.25;4893717;28;113802;-75
2021/04/03 06:07:40;;;;;;;28.63;4.32;;;;;;;9.10;52.92;102681.03;4873033;28;113828;-75
2021/04/03 06:10:10;;;;;;;33.33;4.50;;;;;;;9.12;52.54;102679.25;4892071;28;124043;-75
2021/04/03 06:12:41;;;;;;;30.88;4.43;;;;;;;9.14;52.96;102682.75;4893050;28;123904;-75
2021/04/03 06:15:33;;;;;;;32.22;4.78;;;;;;;9.18;53.04;102688.91;4875777;28;113567;-75
2021/04/03 06:18:01;;;;;;;33.05;4.78;;;;;;;9.22;52.71;102689.75;4895156;28;114236;-75
2021/04/03 06:20:36;;;;;;;27.75;4.97;;;;;;;9.23;52.83;102705.59;4878953;28;122997;-75
2021/04/03 06:23:04;;;;;;;25.08;4.82;;;;;;;9.29;53.03;102707.31;4877826;28;124129;-75
2021/04/03 06:25:51;;;;;;;27.48;4.68;;;;;;;9.31;53.13;102694.94;4880101;28;113820;-75
2021/04/03 06:28:24;;;;;;;28.30;4.75;;;;;;;9.36;52.94;102698.41;4878839;28;113550;-75
2021/04/03 06:30:50;;;;;;;26.65;4.72;;;;;;;9.41;52.86;102701.88;4875784;28;123202;-75
2021/04/03 06:33:19;;;;;;;29.52;4.97;;;;;;;9.45;53.32;102700.94;4879366;28;124715;-75
2021/04/03 06:36:04;;;;;;;37.78;5.47;;;;;;;9.49;52.81;102705.34;4872720;28;115306;-75
2021/04/03 06:38:31;;;;;;;29.88;4.80;;;;;;;9.55;52.80;102710.56;4888505;28;114463;-75
2021/04/03 06:41:19;;;;;;;29.30;4.90;;;;;;;9.60;52.68;102717.56;4896021;28;124026;-75
2021/04/03 06:44:02;;;;;;;32.00;5.00;;;;;;;9.63;52.98;102709.59;4876175;28;122962;-75
2021/04/03 06:46:29;;;;;;;28.63;5.10;;;;;;;9.69;52.73;102712.19;4886566;28;114034;-75
2021/04/03 06:48:57;;;;;;;32.85;5.32;;;;;;;9.72;52.74;102717.44;4895380;28;114010;-75
2021/04/03 06:51:25;;;;;;;23.00;4.90;;;;;;;9.75;52.71;102722.69;4887121;28;124242;-75
2021/04/03 06:53:54;;;;;;;23.02;4.82;;;;;;;9.79;52.54;102734.09;4864957;28;122974;-75
2021/04/03 06:56:22;;;;;;;40.60;5.57;;;;;;;9.81;52.58;102735.84;4900490;28;113292;-74
2021/04/03 06:58:57;;;;;;;28.55;4.53;;;;;;;9.80;52.46;102741.16;4898638;28;114370;-74
2021/04/03 07:01:33;;;;;;;25.50;4.53;;;;;;;9.83;52.30;102741.13;4883550;28;124287;-75
2021/04/03 07:04:10;;;;;;;32.38;4.93;;;;;;;9.84;52.49;102732.28;4892004;28;123362;-74
2021/04/03 07:06:37;;;;;;;31.55;4.90;;;;;;;9.86;52.63;102736.66;4877548;28;113875;-74
2021/04/03 07:09:05;;;;;;;38.45;5.65;;;;;;;9.87;52.42;102738.44;4876362;28;114296;-74
2021/04/03 07:11:32;;;;;;;32.42;5.20;;;;;;;9.91;52.32;102734.84;4877906;28;125156;-74
2021/04/03 07:14:00;;;;;;;34.70;5.82;;;;;;;9.97;52.49;102743.63;4886256;28;124123;-74
2021/04/03 07:16:27;;;;;;;31.25;4.90;;;;;;;10.01;52.39;102745.34;4866011;28;113292;-75
2021/04/03 07:18:55;;;;;;;24.60;4.95;;;;;;;10.07;52.55;102745.25;4885587;28;113867;-75
2021/04/03 07:21:22;;;;;;;30.08;4.97;;;;;;;10.12;51.97;102754.03;4884936;28;123917;-75
2021/04/03 07:23:50;;;;;;;29.67;5.18;;;;;;;10.15;51.98;102753.97;4879368;28;124406;-75
2021/04/03 07:26:17;;;;;;;31.67;5.82;;;;;;;10.16;51.78;102758.38;4886285;28;115820;-74
2021/04/03 07:28:44;;;;;;;26.98;4.60;;;;;;;10.19;51.75;102761.00;4881596;28;114993;-75
2021/04/03 07:31:38;;;;;;;32.50;5.05;;;;;;;10.20;51.65;102756.56;4861854;28;122719;-74
2021/04/03 07:34:05;;;;;;;28.83;5.30;;;;;;;10.22;51.82;102750.34;4874257;28;122683;-75
2021/04/03 07:36:37;;;;;;;27.70;4.70;;;;;;;10.22;51.50;102750.34;4885410;28;113966;-75
2021/04/03 07:39:27;;;;;;;28.70;4.90;;;;;;;10.24;51.86;102764.44;4884160;28;113428;-75
2021/04/03 07:41:53;;;;;;;28.88;5.55;;;;;;;10.25;51.58;102763.56;4881428;28;124103;-75
2021/04/03 07:44:20;;;;;;;31.35;5.35;;;;;;;10.29;51.96;102761.75;4862510;28;123474;-74
2021/04/03 07:46:49;;;;;;;33.05;5.68;;;;;;;10.33;51.52;102769.66;4883352;28;114642;-75
2021/04/03 07:49:33;;;;;;;26.38;5.13;;;;;;;10.37;51.44;102769.63;4873828;28;113198;-75
2021/04/03 07:51:59;;;;;;;31.77;5.70;;;;;;;10.42;51.17;102773.09;4876111;28;123769;-75
2021/04/03 07:54:28;;;;;;;28.40;5.43;;;;;;;10.44;51.44;102776.59;4881398;28;124041;-75
2021/04/03 07:56:58;;;;;;;29.60;4.82;;;;;;;10.47;51.21;102768.59;4878632;28;114317;-75
2021/04/03 07:59:43;;;;;;;24.27;4.60;;;;;;;10.49;51.28;102769.44;4893069;28;113874;-74
2021/04/03 08:02:15;;;;;;;24.40;5.23;;;;;;;10.54;51.31;102778.22;4887289;28;124313;-75
2021/04/03 08:04:42;;;;;;;29.27;5.35;;;;;;;10.58;51.38;102774.63;4895283;28;124337;-74
2021/04/03 08:07:09;;;;;;;24.50;4.90;;;;;;;10.65;51.38;102786.91;4876546;28;113654;-75
2021/04/03 08:09:37;;;;;;;25.65;4.88;;;;;;;10.71;51.30;102788.56;4895694;28;113531;-75
2021/04/03 08:12:05;;;;;;;28.20;5.57;;;;;;;10.78;51.17;102781.44;4881958;28;123783;-74
2021/04/03 08:14:35;;;;;;;28.42;5.20;;;;;;;10.84;50.85;102776.03;4877286;28;123200;-74
2021/04/03 08:17:04;;;;;;;21.42;4.18;;;;;;;10.93;50.96;102786.50;4887862;28;115996;-75
2021/04/03 08:19:37;;;;;;;24.08;4.88;;;;;;;11.00;50.51;102788.16;4880227;28;115462;-75
2021/04/03 08:22:08;;;;;;;23.73;5.13;;;;;;;11.06;50.97;102793.34;4868960;28;124286;-75
2021/04/03 08:24:34;;;;;;;27.58;5.03;;;;;;;11.20;50.62;102794.91;4888925;28;123004;-75
2021/04/03 08:27:02;;;;;;;23.23;4.90;;;;;;;11.35;50.60;102793.78;4883353;28;116077;-75
2021/04/03 08:29:29;;;;;;;29.83;5.18;;;;;;;11.49;50.66;102792.66;4868834;28;113162;-74
2021/04/03 08:31:58;;;;;;;26.83;5.03;;;;;;;11.61;50.48;102786.25;4876766;28;123011;-74
2021/04/03 08:34:25;;;;;;;26.92;5.35;;;;;;;11.75;50.15;102799.25;4880418;28;123887;-74
2021/04/03 08:36:53;;;;;;;26.90;4.78;;;;;;;11.85;50.05;102806.16;4863527;28;113502;-74
2021/04/03 08:39:22;;;;;;;31.55;4.90;;;;;;;11.94;49.69;102809.56;4874419;28;112735;-75
2021/04/03 08:41:51;;;;;;;26.98;5.28;;;;;;;12.02;49.40;102799.69;4873236;28;124192;-75
2021/04/03 08:44:21;;;;;;;32.03;6.57;;;;;;;12.06;49.38;102804.03;4858474;28;122742;-75
2021/04/03 08:46:54;;;;;;;26.70;5.63;;;;;;;12.12;49.22;102803.03;4881514;28;113228;-75
2021/04/03 08:49:36;;;;;;;25.67;5.32;;;;;;;12.20;49.34;102798.41;4873754;28;114007;-74
2021/04/03 08:52:05;;;;;;;23.73;4.97;;;;;;;12.31;49.50;102803.53;4881372;28;124179;-75
2021/04/03 08:54:40;;;;;;;26.98;5.60;;;;;;;12.38;49.21;102811.34;4869721;28;123862;-74
2021/04/03 08:57:23;;;;;;;20.42;5.32;;;;;;;12.42;48.74;102801.53;4881511;28;114319;-74
2021/04/03 08:59:50;;;;;;;27.30;5.20;;;;;;;12.46;48.84;102806.72;4875197;28;114131;-74
2021/04/03 09:02:17;;;;;;;31.50;5.35;;;;;;;12.52;48.87;102797.75;4884866;28;124356;-74
2021/04/03 09:04:43;;;;;;;20.90;5.07;;;;;;;12.61;48.46;102802.84;4885865;28;124719;-75
2021/04/03 09:07:10;;;;;;;27.08;5.05;;;;;;;12.72;48.70;102799.09;4887259;28;115592;-75
2021/04/03 09:09:38;;;;;;;25.15;5.85;;;;;;;12.83;48.26;102794.41;4884767;28;114762;-75
2021/04/03 09:12:07;;;;;;;32.42;5.72;;;;;;;12.96;48.23;102802.94;4868985;28;123806;-76
2021/04/03 09:14:39;;;;;;;26.50;5.30;;;;;;;13.04;47.81;102801.88;4878646;28;123014;-75
2021/04/03 09:17:24;;;;;;;30.83;5.93;;;;;;;13.10;47.83;102802.66;4889328;28;114339;-76
2021/04/03 09:20:04;;;;;;;24.67;4.83;;;;;;;13.13;47.93;102794.56;4887271;28;113713;-74
2021/04/03 09:22:37;;;;;;;22.02;4.68;;;;;;;13.15;47.40;102798.09;4881900;28;124345;-73
2021/04/03 09:25:08;;;;;;;30.40;5.80;;;;;;;13.14;47.59;102796.34;4891770;28;97566;-74
2021/04/03 09:27:35;;;;;;;28.10;4.95;;;;;;;13.12;47.40;102803.47;4893008;28;115040;-76
2021/04/03 09:30:09;;;;;;;29.00;5.50;;;;;;;13.17;47.45;102804.25;4890730;28;113716;-75
2021/04/03 09:32:43;;;;;;;21.40;4.95;;;;;;;13.29;47.47;102795.09;4899689;23;124036;-73
2021/04/03 09:35:13;;;;;;;23.30;5.80;;;;;;;13.41;47.33;102801.00;4910899;28;124213;-73
2021/04/03 09:37:40;;;;;;;22.75;4.85;;;;;;;13.52;47.26;102791.84;4894748;28;114762;-72
2021/04/03 09:40:07;;;;;;;20.17;5.38;;;;;;;13.62;46.87;102793.38;4911790;28;114348;-71
2021/04/03 09:42:35;;;;;;;27.83;5.63;;;;;;;13.68;46.81;102790.53;4907293;28;123674;-72
2021/04/03 09:45:05;;;;;;;24.83;5.45;;;;;;;13.65;46.16;102787.94;4894720;28;122839;-73
2021/04/03 09:47:32;;;;;;;22.88;4.75;;;;;;;13.63;46.31;102781.78;4886627;28;113391;-73
2021/04/03 09:49:58;;;;;;;21.13;4.70;;;;;;;13.60;46.05;102800.53;4920963;28;114156;-72
2021/04/03 09:52:26;;;;;;;25.88;4.78;;;;;;;13.56;45.86;102788.19;4908226;28;124352;-73
2021/04/03 09:54:52;;;;;;;21.35;5.40;;;;;;;13.51;45.62;102790.13;4905109;28;122884;-73
2021/04/03 09:57:20;;;;;;;19.95;4.68;;;;;;;13.48;45.67;102798.19;4922694;28;116848;-73
2021/04/03 09:59:46;;;;;;;21.85;5.20;;;;;;;13.46;45.57;102794.69;4916883;28;115013;-71
2021/04/03 10:02:13;;;;;;;23.33;5.07;;;;;;;13.47;45.49;102799.06;4897152;28;123459;-71
2021/04/03 10:04:40;;;;;;;20.85;4.82;;;;;;;13.47;45.83;102796.41;4917795;28;123907;-71
2021/04/03 10:07:06;;;;;;;22.27;4.97;;;;;;;13.49;45.59;102797.28;4918192;28;114411;-71
2021/04/03 10:09:33;;;;;;;24.27;5.13;;;;;;;13.47;45.15;102799.06;4918396;28;114122;-71
2021/04/03 10:12:00;;;;;;;24.90;4.93;;;;;;;13.46;45.07;102797.34;4897499;28;123665;-72
2021/04/03 10:14:27;;;;;;;20.17;5.43;;;;;;;13.47;45.28;102789.34;4920033;28;123855;-72
2021/04/03 10:17:05;;;;;;;21.45;4.72;;;;;;;13.59;45.47;102788.13;4926061;28;114201;-72
2021/04/03 10:19:32;;;;;;;18.27;4.75;;;;;;;13.72;45.12;102789.53;4924495;28;115789;-71
2021/04/03 10:21:58;;;;;;;20.73;4.95;;;;;;;13.85;45.55;102794.56;4892990;28;123596;-71
2021/04/03 10:24:25;;;;;;;22.92;4.82;;;;;;;14.01;45.61;102793.19;4889040;28;123818;-71
2021/04/03 10:26:52;;;;;;;19.02;4.30;;;;;;;14.16;45.13;102790.06;4900832;28;114106;-71
2021/04/03 10:29:19;;;;;;;17.73;4.80;;;;;;;14.30;45.21;102796.81;4926277;28;114395;-71
2021/04/03 10:31:45;;;;;;;20.85;4.85;;;;;;;14.42;44.82;102791.13;4919033;28;123604;-71
2021/04/03 10:34:12;;;;;;;23.38;5.47;;;;;;;14.53;44.33;102799.66;4924866;28;124230;-71
2021/04/03 10:36:39;;;;;;;24.05;4.93;;;;;;;14.57;44.49;102806.69;4922824;28;114015;-71
2021/04/03 10:39:08;;;;;;;26.58;4.80;;;;;;;14.58;44.25;102803.09;4901322;28;112348;-70
2021/04/03 10:41:35;;;;;;;20.92;5.10;;;;;;;14.56;44.31;102804.91;4927683;28;124221;-71
2021/04/03 10:44:01;;;;;;;20.27;4.45;;;;;;;14.51;44.28;102800.63;4925399;28;124429;-71
2021/04/03 10:46:28;;;;;;;20.02;4.05;;;;;;;14.46;43.90;102802.56;4919502;28;115168;-71
2021/04/03 10:48:54;;;;;;;21.55;4.75;;;;;;;14.45;43.54;102801.69;4921847;28;115293;-70
2021/04/03 10:51:21;;;;;;;18.58;4.55;;;;;;;14.47;43.49;102805.19;4897972;28;123134;-70
2021/04/03 10:53:47;;;;;;;21.27;4.75;;;;;;;14.52;43.41;102813.03;4928218;28;124516;-69
2021/04/03 10:56:14;;;;;;;20.25;4.50;;;;;;;14.54;43.41;102798.75;4926226;28;114397;-70
2021/04/03 10:58:40;;;;;;;20.15;4.35;;;;;;;14.59;43.18;102794.16;4927150;28;113269;-70
2021/04/03 11:01:07;;;;;;;19.00;4.38;;;;;;;14.63;42.88;102799.41;4893151;28;122877;-71
2021/04/03 11:03:34;;;;;;;21.08;4.47;;;;;;;14.69;43.35;102793.88;4883235;28;123246;-71
2021/04/03 11:06:01;;;;;;;16.40;4.13;;;;;;;14.80;43.24;102797.09;4904007;28;114623;-70
2021/04/03 11:08:29;;;;;;;15.93;4.20;;;;;;;14.94;42.96;102794.88;4906043;28;112006;-70
2021/04/03 11:10:57;;;;;;;16.25;4.32;;;;;;;15.05;42.59;102801.66;4924002;28;123773;-70
2021/04/03 11:13:24;;;;;;;13.85;3.95;;;;;;;15.14;42.08;102790.66;4893406;28;122853;-70
2021/04/03 11:15:50;;;;;;;17.35;4.40;;;;;;;15.17;42.36;102790.59;4911892;28;114987;-69
2021/04/03 11:18:17;;;;;;;13.65;4.28;;;;;;;15.17;42.46;102785.25;4913112;28;113789;-70
2021/04/03 11:20:44;;;;;;;21.27;5.20;;;;;;;15.15;42.73;102781.75;4910008;28;124090;-70
2021/04/03 11:23:11;;;;;;;21.40;4.93;;;;;;;15.20;42.92;102779.81;4914965;28;124174;-71
2021/04/03 11:25:38;;;;;;;19.05;4.82;;;;;;;15.29;42.78;102784.81;4925130;28;115014;-70
2021/04/03 11:28:05;;;;;;;20.98;4.68;;;;;;;15.37;42.14;102782.78;4923055;28;114245;-71
2021/04/03 11:30:32;;;;;;;19.90;4.53;;;;;;;15.45;41.48;102781.66;4921067;28;123129;-70